sensor_id;sensor_type;location;lat;lon;timestamp;temperature;humidity
30851;DHT22;17567;48.382;9.102;2023-04-16T00:01:11;5.70;99.90
30851;DHT22;17567;48.382;9.102;2023-04-16T00:06:11;5.80;99.90
30851;DHT22;17567;48.382;9.102;2023-04-16T00:11:12;5.90;99.90
30851;DHT22;17567;48.382;9.102;2023-04-16T00:16:12;6.00;99.90
30851;DHT22;17567;48.382;9.102;2023-04-16T00:21:13;5.80;99.90
30851;DHT22;17567;48.382;9.102;2023-04-16T00:26:13;5.80;99.90
30851;DHT22;17567;48.382;9.102;2023-04-16T00:31:15;5.80;99.90
30851;DHT22;17567;48.382;9.102;2023-04-16T00:36:16;5.70;99.90
30851;DHT22;17567;48.382;9.102;2023-04-16T00:41:16;5.70;99.90
30851;DHT22;17567;48.382;9.102;2023-04-16T00:46:22;5.70;99.90
30851;DHT22;17567;48.382;9.102;2023-04-16T00:51:22;5.70;99.90
30851;DHT22;17567;48.382;9.102;2023-04-16T00:56:24;5.80;99.90
30851;DHT22;17567;48.382;9.102;2023-04-16T01:01:24;5.80;99.90
30851;DHT22;17567;48.382;9.102;2023-04-16T01:06:25;5.80;99.90
30851;DHT22;17567;48.382;9.102;2023-04-16T01:11:26;5.80;99.90
30851;DHT22;17567;48.382;9.102;2023-04-16T01:16:26;5.70;99.90
30851;DHT22;17567;48.382;9.102;2023-04-16T01:21:27;5.70;99.90
30851;DHT22;17567;48.382;9.102;2023-04-16T01:26:27;5.70;99.90
30851;DHT22;17567;48.382;9.102;2023-04-16T01:31:28;5.80;99.90
30851;DHT22;17567;48.382;9.102;2023-04-16T01:36:29;5.80;99.90
30851;DHT22;17567;48.382;9.102;2023-04-16T01:41:30;5.80;99.90
30851;DHT22;17567;48.382;9.102;2023-04-16T01:46:33;5.80;99.90
30851;DHT22;17567;48.382;9.102;2023-04-16T01:51:34;5.90;99.90
30851;DHT22;17567;48.382;9.102;2023-04-16T01:56:34;5.80;99.90
30851;DHT22;17567;48.382;9.102;2023-04-16T02:01:35;5.90;99.90
30851;DHT22;17567;48.382;9.102;2023-04-16T02:06:36;5.80;99.90
30851;DHT22;17567;48.382;9.102;2023-04-16T02:11:36;5.70;99.90
30851;DHT22;17567;48.382;9.102;2023-04-16T02:16:37;5.80;99.90
30851;DHT22;17567;48.382;9.102;2023-04-16T02:21:37;5.80;99.90
30851;DHT22;17567;48.382;9.102;2023-04-16T02:26:38;5.70;99.90
30851;DHT22;17567;48.382;9.102;2023-04-16T02:31:39;5.70;99.90
30851;DHT22;17567;48.382;9.102;2023-04-16T02:36:40;5.70;99.90
30851;DHT22;17567;48.382;9.102;2023-04-16T02:41:41;5.70;99.90
30851;DHT22;17567;48.382;9.102;2023-04-16T02:46:41;5.70;99.90
30851;DHT22;17567;48.382;9.102;2023-04-16T02:51:42;5.80;99.90
30851;DHT22;17567;48.382;9.102;2023-04-16T02:56:42;5.80;99.90
30851;DHT22;17567;48.382;9.102;2023-04-16T03:01:43;5.80;99.90
30851;DHT22;17567;48.382;9.102;2023-04-16T03:06:43;5.80;99.90
30851;DHT22;17567;48.382;9.102;2023-04-16T03:11:44;5.80;99.90
30851;DHT22;17567;48.382;9.102;2023-04-16T03:16:45;5.80;99.90
30851;DHT22;17567;48.382;9.102;2023-04-16T03:21:45;5.80;99.90
30851;DHT22;17567;48.382;9.102;2023-04-16T03:26:46;5.80;99.90
30851;DHT22;17567;48.382;9.102;2023-04-16T03:31:46;5.80;99.90
30851;DHT22;17567;48.382;9.102;2023-04-16T03:36:47;5.90;99.90
30851;DHT22;17567;48.382;9.102;2023-04-16T03:41:48;5.90;99.90
30851;DHT22;17567;48.382;9.102;2023-04-16T03:46:48;5.90;99.90
30851;DHT22;17567;48.382;9.102;2023-04-16T03:51:49;6.00;99.90
30851;DHT22;17567;48.382;9.102;2023-04-16T03:56:49;5.90;99.90
30851;DHT22;17567;48.382;9.102;2023-04-16T04:01:51;5.90;99.90
30851;DHT22;17567;48.382;9.102;2023-04-16T04:06:51;5.80;99.90
30851;DHT22;17567;48.382;9.102;2023-04-16T04:11:52;5.80;99.90
30851;DHT22;17567;48.382;9.102;2023-04-16T04:16:53;5.80;99.90
30851;DHT22;17567;48.382;9.102;2023-04-16T04:21:53;5.80;99.90
30851;DHT22;17567;48.382;9.102;2023-04-16T04:26:54;5.80;99.90
30851;DHT22;17567;48.382;9.102;2023-04-16T04:31:55;5.90;99.90
30851;DHT22;17567;48.382;9.102;2023-04-16T04:36:55;5.70;99.90
30851;DHT22;17567;48.382;9.102;2023-04-16T04:41:56;5.80;99.90
30851;DHT22;17567;48.382;9.102;2023-04-16T04:46:57;5.70;99.90
30851;DHT22;17567;48.382;9.102;2023-04-16T04:51:57;5.70;99.90
30851;DHT22;17567;48.382;9.102;2023-04-16T04:56:58;5.70;99.90
30851;DHT22;17567;48.382;9.102;2023-04-16T05:01:59;5.70;99.90
30851;DHT22;17567;48.382;9.102;2023-04-16T05:06:59;5.70;99.90
30851;DHT22;17567;48.382;9.102;2023-04-16T05:12:01;5.70;99.90
30851;DHT22;17567;48.382;9.102;2023-04-16T05:17:03;5.70;99.90
30851;DHT22;17567;48.382;9.102;2023-04-16T05:22:03;5.80;99.90
30851;DHT22;17567;48.382;9.102;2023-04-16T05:27:04;5.70;99.90
30851;DHT22;17567;48.382;9.102;2023-04-16T05:32:04;5.70;99.90
30851;DHT22;17567;48.382;9.102;2023-04-16T05:37:05;5.70;99.90
30851;DHT22;17567;48.382;9.102;2023-04-16T05:42:06;5.70;99.90
30851;DHT22;17567;48.382;9.102;2023-04-16T05:47:06;5.70;99.90
30851;DHT22;17567;48.382;9.102;2023-04-16T05:52:08;5.80;99.90
30851;DHT22;17567;48.382;9.102;2023-04-16T05:57:09;5.70;99.90
30851;DHT22;17567;48.382;9.102;2023-04-16T06:02:10;5.80;99.90
30851;DHT22;17567;48.382;9.102;2023-04-16T06:07:10;5.70;99.90
30851;DHT22;17567;48.382;9.102;2023-04-16T06:12:11;5.80;99.90
30851;DHT22;17567;48.382;9.102;2023-04-16T06:17:12;5.80;99.90
30851;DHT22;17567;48.382;9.102;2023-04-16T06:22:12;5.80;99.90
30851;DHT22;17567;48.382;9.102;2023-04-16T06:27:13;5.80;99.90
30851;DHT22;17567;48.382;9.102;2023-04-16T06:32:14;5.80;99.90
30851;DHT22;17567;48.382;9.102;2023-04-16T06:37:16;5.90;99.90
30851;DHT22;17567;48.382;9.102;2023-04-16T06:42:17;5.90;99.90
30851;DHT22;17567;48.382;9.102;2023-04-16T06:47:18;5.90;99.90
30851;DHT22;17567;48.382;9.102;2023-04-16T06:52:19;5.90;99.90
30851;DHT22;17567;48.382;9.102;2023-04-16T06:57:19;5.90;99.90
30851;DHT22;17567;48.382;9.102;2023-04-16T07:02:20;5.90;99.90
30851;DHT22;17567;48.382;9.102;2023-04-16T07:07:21;5.90;99.90
30851;DHT22;17567;48.382;9.102;2023-04-16T07:12:21;5.80;99.90
30851;DHT22;17567;48.382;9.102;2023-04-16T07:17:22;5.80;99.90
30851;DHT22;17567;48.382;9.102;2023-04-16T07:22:22;5.80;99.90
30851;DHT22;17567;48.382;9.102;2023-04-16T07:27:23;5.80;99.90
30851;DHT22;17567;48.382;9.102;2023-04-16T07:32:24;5.80;99.90
30851;DHT22;17567;48.382;9.102;2023-04-16T07:37:25;5.90;99.90
30851;DHT22;17567;48.382;9.102;2023-04-16T07:42:26;5.80;99.90
30851;DHT22;17567;48.382;9.102;2023-04-16T07:47:27;5.90;99.90
30851;DHT22;17567;48.382;9.102;2023-04-16T07:52:28;5.80;99.90
30851;DHT22;17567;48.382;9.102;2023-04-16T07:57:28;5.80;99.90
30851;DHT22;17567;48.382;9.102;2023-04-16T08:02:29;5.90;99.90
30851;DHT22;17567;48.382;9.102;2023-04-16T08:07:30;5.80;99.90
30851;DHT22;17567;48.382;9.102;2023-04-16T08:12:30;5.90;99.90
30851;DHT22;17567;48.382;9.102;2023-04-16T08:17:31;5.90;99.90
30851;DHT22;17567;48.382;9.102;2023-04-16T08:22:33;5.90;99.90
30851;DHT22;17567;48.382;9.102;2023-04-16T08:27:34;5.80;99.90
30851;DHT22;17567;48.382;9.102;2023-04-16T08:32:34;5.80;99.90
30851;DHT22;17567;48.382;9.102;2023-04-16T08:37:35;5.80;99.90
30851;DHT22;17567;48.382;9.102;2023-04-16T08:42:47;5.80;99.90
30851;DHT22;17567;48.382;9.102;2023-04-16T08:47:52;5.80;99.90
30851;DHT22;17567;48.382;9.102;2023-04-16T08:52:57;5.80;99.90
30851;DHT22;17567;48.382;9.102;2023-04-16T08:57:58;5.90;99.90
30851;DHT22;17567;48.382;9.102;2023-04-16T09:02:59;5.90;99.90
30851;DHT22;17567;48.382;9.102;2023-04-16T09:08:00;5.90;99.90
30851;DHT22;17567;48.382;9.102;2023-04-16T09:13:01;5.90;99.90
30851;DHT22;17567;48.382;9.102;2023-04-16T09:18:02;5.90;99.90
30851;DHT22;17567;48.382;9.102;2023-04-16T09:23:03;5.90;99.90
30851;DHT22;17567;48.382;9.102;2023-04-16T09:28:03;6.00;99.90
30851;DHT22;17567;48.382;9.102;2023-04-16T09:33:18;6.00;99.90
30851;DHT22;17567;48.382;9.102;2023-04-16T09:38:21;6.00;99.90
30851;DHT22;17567;48.382;9.102;2023-04-16T09:43:22;6.10;99.90
30851;DHT22;17567;48.382;9.102;2023-04-16T09:48:30;6.20;99.90
30851;DHT22;17567;48.382;9.102;2023-04-16T09:53:31;6.20;99.90
30851;DHT22;17567;48.382;9.102;2023-04-16T09:58:35;6.20;99.90
30851;DHT22;17567;48.382;9.102;2023-04-16T10:03:37;6.20;99.90
30851;DHT22;17567;48.382;9.102;2023-04-16T10:08:44;6.20;99.90
30851;DHT22;17567;48.382;9.102;2023-04-16T10:13:46;6.50;99.90
30851;DHT22;17567;48.382;9.102;2023-04-16T10:18:46;6.40;99.90
30851;DHT22;17567;48.382;9.102;2023-04-16T10:23:47;6.40;99.90
30851;DHT22;17567;48.382;9.102;2023-04-16T10:28:49;6.50;99.90
30851;DHT22;17567;48.382;9.102;2023-04-16T10:33:50;6.40;99.90
30851;DHT22;17567;48.382;9.102;2023-04-16T10:38:54;6.50;99.90
30851;DHT22;17567;48.382;9.102;2023-04-16T10:44:07;6.60;99.90
30851;DHT22;17567;48.382;9.102;2023-04-16T10:49:19;6.60;99.90
30851;DHT22;17567;48.382;9.102;2023-04-16T10:54:24;6.60;99.90
30851;DHT22;17567;48.382;9.102;2023-04-16T10:59:30;6.60;99.90
30851;DHT22;17567;48.382;9.102;2023-04-16T11:04:38;6.60;99.90
30851;DHT22;17567;48.382;9.102;2023-04-16T11:10:05;6.60;99.90
30851;DHT22;17567;48.382;9.102;2023-04-16T11:15:11;6.60;99.90
30851;DHT22;17567;48.382;9.102;2023-04-16T11:25:42;6.60;99.90
30851;DHT22;17567;48.382;9.102;2023-04-16T11:30:42;6.70;99.90
30851;DHT22;17567;48.382;9.102;2023-04-16T11:35:43;6.70;99.90
30851;DHT22;17567;48.382;9.102;2023-04-16T11:40:48;6.70;99.90
30851;DHT22;17567;48.382;9.102;2023-04-16T11:46:02;6.80;99.90
30851;DHT22;17567;48.382;9.102;2023-04-16T11:51:03;6.70;99.90
30851;DHT22;17567;48.382;9.102;2023-04-16T11:56:04;6.70;99.90
30851;DHT22;17567;48.382;9.102;2023-04-16T12:01:05;6.60;99.90
30851;DHT22;17567;48.382;9.102;2023-04-16T12:06:09;6.60;99.90
30851;DHT22;17567;48.382;9.102;2023-04-16T12:11:09;6.50;99.90
30851;DHT22;17567;48.382;9.102;2023-04-16T12:16:18;6.50;99.90
30851;DHT22;17567;48.382;9.102;2023-04-16T12:21:19;6.50;99.90
30851;DHT22;17567;48.382;9.102;2023-04-16T12:26:20;6.60;99.90
30851;DHT22;17567;48.382;9.102;2023-04-16T12:31:36;6.50;99.90
30851;DHT22;17567;48.382;9.102;2023-04-16T12:36:37;6.60;99.90
30851;DHT22;17567;48.382;9.102;2023-04-16T12:41:39;6.50;99.90
30851;DHT22;17567;48.382;9.102;2023-04-16T12:46:42;6.60;99.90
30851;DHT22;17567;48.382;9.102;2023-04-16T12:51:42;6.70;99.90
30851;DHT22;17567;48.382;9.102;2023-04-16T12:56:43;6.70;99.90
30851;DHT22;17567;48.382;9.102;2023-04-16T13:01:44;6.70;99.90
30851;DHT22;17567;48.382;9.102;2023-04-16T13:06:45;6.70;99.90
30851;DHT22;17567;48.382;9.102;2023-04-16T13:11:46;6.80;99.90
30851;DHT22;17567;48.382;9.102;2023-04-16T13:16:47;6.80;99.90
30851;DHT22;17567;48.382;9.102;2023-04-16T13:21:47;6.70;99.90
30851;DHT22;17567;48.382;9.102;2023-04-16T13:26:49;6.80;99.90
30851;DHT22;17567;48.382;9.102;2023-04-16T13:31:50;6.80;99.90
30851;DHT22;17567;48.382;9.102;2023-04-16T13:36:50;6.80;99.90
30851;DHT22;17567;48.382;9.102;2023-04-16T13:41:51;6.90;99.90
30851;DHT22;17567;48.382;9.102;2023-04-16T13:46:51;6.90;99.90
30851;DHT22;17567;48.382;9.102;2023-04-16T13:51:52;6.90;99.90
30851;DHT22;17567;48.382;9.102;2023-04-16T13:56:53;7.00;99.90
30851;DHT22;17567;48.382;9.102;2023-04-16T14:01:53;7.00;99.90
30851;DHT22;17567;48.382;9.102;2023-04-16T14:06:54;7.00;99.90
30851;DHT22;17567;48.382;9.102;2023-04-16T14:11:55;6.90;99.90
30851;DHT22;17567;48.382;9.102;2023-04-16T14:16:57;6.90;99.90
30851;DHT22;17567;48.382;9.102;2023-04-16T14:21:58;7.00;99.90
30851;DHT22;17567;48.382;9.102;2023-04-16T14:26:58;6.90;99.90
30851;DHT22;17567;48.382;9.102;2023-04-16T14:31:59;6.90;99.90
30851;DHT22;17567;48.382;9.102;2023-04-16T14:37:00;6.90;99.90
30851;DHT22;17567;48.382;9.102;2023-04-16T14:42:00;6.90;99.90
30851;DHT22;17567;48.382;9.102;2023-04-16T14:47:01;7.00;99.90
30851;DHT22;17567;48.382;9.102;2023-04-16T14:52:01;7.00;99.90
30851;DHT22;17567;48.382;9.102;2023-04-16T14:57:04;6.90;99.90
30851;DHT22;17567;48.382;9.102;2023-04-16T15:02:05;7.00;99.90
30851;DHT22;17567;48.382;9.102;2023-04-16T15:07:06;7.00;99.90
30851;DHT22;17567;48.382;9.102;2023-04-16T15:12:07;6.90;99.90
30851;DHT22;17567;48.382;9.102;2023-04-16T15:17:08;7.00;99.90
30851;DHT22;17567;48.382;9.102;2023-04-16T15:22:09;7.00;99.90
30851;DHT22;17567;48.382;9.102;2023-04-16T15:27:09;7.00;99.90
30851;DHT22;17567;48.382;9.102;2023-04-16T15:32:11;7.00;99.90
30851;DHT22;17567;48.382;9.102;2023-04-16T15:37:15;7.00;99.90
30851;DHT22;17567;48.382;9.102;2023-04-16T15:42:16;6.90;99.90
30851;DHT22;17567;48.382;9.102;2023-04-16T15:47:16;6.90;99.90
30851;DHT22;17567;48.382;9.102;2023-04-16T15:52:17;7.00;99.90
30851;DHT22;17567;48.382;9.102;2023-04-16T15:57:19;6.90;99.90
30851;DHT22;17567;48.382;9.102;2023-04-16T16:02:19;7.00;99.90
30851;DHT22;17567;48.382;9.102;2023-04-16T16:07:20;6.90;99.90
30851;DHT22;17567;48.382;9.102;2023-04-16T16:12:20;6.90;99.90
30851;DHT22;17567;48.382;9.102;2023-04-16T16:17:21;7.00;99.90
30851;DHT22;17567;48.382;9.102;2023-04-16T16:22:22;7.00;99.90
30851;DHT22;17567;48.382;9.102;2023-04-16T16:27:23;6.90;99.90
30851;DHT22;17567;48.382;9.102;2023-04-16T16:32:23;6.90;99.90
30851;DHT22;17567;48.382;9.102;2023-04-16T16:37:24;6.90;99.90
30851;DHT22;17567;48.382;9.102;2023-04-16T16:42:25;7.00;99.90
30851;DHT22;17567;48.382;9.102;2023-04-16T16:47:26;7.00;99.90
30851;DHT22;17567;48.382;9.102;2023-04-16T16:52:27;6.90;99.90
30851;DHT22;17567;48.382;9.102;2023-04-16T16:57:27;6.90;99.90
30851;DHT22;17567;48.382;9.102;2023-04-16T17:02:28;7.00;99.90
30851;DHT22;17567;48.382;9.102;2023-04-16T17:07:28;6.90;99.90
30851;DHT22;17567;48.382;9.102;2023-04-16T17:12:29;6.90;99.90
30851;DHT22;17567;48.382;9.102;2023-04-16T17:17:29;6.90;99.90
30851;DHT22;17567;48.382;9.102;2023-04-16T17:22:31;6.80;99.90
30851;DHT22;17567;48.382;9.102;2023-04-16T17:27:35;6.80;99.90
30851;DHT22;17567;48.382;9.102;2023-04-16T17:32:38;6.80;99.90
30851;DHT22;17567;48.382;9.102;2023-04-16T17:37:43;6.80;99.90
30851;DHT22;17567;48.382;9.102;2023-04-16T17:42:43;6.80;99.90
30851;DHT22;17567;48.382;9.102;2023-04-16T17:47:44;6.80;99.90
30851;DHT22;17567;48.382;9.102;2023-04-16T17:52:45;6.80;99.90
30851;DHT22;17567;48.382;9.102;2023-04-16T17:57:49;6.80;99.90
30851;DHT22;17567;48.382;9.102;2023-04-16T18:02:49;6.80;99.90
30851;DHT22;17567;48.382;9.102;2023-04-16T18:07:51;6.70;99.90
30851;DHT22;17567;48.382;9.102;2023-04-16T18:12:52;6.80;99.90
30851;DHT22;17567;48.382;9.102;2023-04-16T18:17:54;6.70;99.90
30851;DHT22;17567;48.382;9.102;2023-04-16T18:22:54;6.80;99.90
30851;DHT22;17567;48.382;9.102;2023-04-16T18:27:55;6.80;99.90
30851;DHT22;17567;48.382;9.102;2023-04-16T18:32:56;6.80;99.90
30851;DHT22;17567;48.382;9.102;2023-04-16T18:37:57;6.80;99.90
30851;DHT22;17567;48.382;9.102;2023-04-16T18:42:57;6.80;99.90
30851;DHT22;17567;48.382;9.102;2023-04-16T18:47:58;6.90;99.90
30851;DHT22;17567;48.382;9.102;2023-04-16T18:52:59;6.90;99.90
30851;DHT22;17567;48.382;9.102;2023-04-16T18:57:59;6.90;99.90
30851;DHT22;17567;48.382;9.102;2023-04-16T19:03:00;6.80;99.90
30851;DHT22;17567;48.382;9.102;2023-04-16T19:08:05;6.90;99.90
30851;DHT22;17567;48.382;9.102;2023-04-16T19:13:05;6.90;99.90
30851;DHT22;17567;48.382;9.102;2023-04-16T19:18:06;6.90;99.90
30851;DHT22;17567;48.382;9.102;2023-04-16T19:23:06;6.90;99.90
30851;DHT22;17567;48.382;9.102;2023-04-16T19:28:08;6.80;99.90
30851;DHT22;17567;48.382;9.102;2023-04-16T19:33:09;6.90;99.90
30851;DHT22;17567;48.382;9.102;2023-04-16T19:38:10;6.90;99.90
30851;DHT22;17567;48.382;9.102;2023-04-16T19:43:10;6.90;99.90
30851;DHT22;17567;48.382;9.102;2023-04-16T19:48:13;6.90;99.90
30851;DHT22;17567;48.382;9.102;2023-04-16T19:53:13;6.90;99.90
30851;DHT22;17567;48.382;9.102;2023-04-16T19:58:16;6.90;99.90
30851;DHT22;17567;48.382;9.102;2023-04-16T20:03:16;6.90;99.90
30851;DHT22;17567;48.382;9.102;2023-04-16T20:08:17;6.90;99.90
30851;DHT22;17567;48.382;9.102;2023-04-16T20:13:17;6.90;99.90
30851;DHT22;17567;48.382;9.102;2023-04-16T20:18:18;6.90;99.90
30851;DHT22;17567;48.382;9.102;2023-04-16T20:23:19;6.90;99.90
30851;DHT22;17567;48.382;9.102;2023-04-16T20:28:20;6.90;99.90
30851;DHT22;17567;48.382;9.102;2023-04-16T20:33:20;6.90;99.90
30851;DHT22;17567;48.382;9.102;2023-04-16T20:38:21;6.90;99.90
30851;DHT22;17567;48.382;9.102;2023-04-16T20:43:23;6.90;99.90
30851;DHT22;17567;48.382;9.102;2023-04-16T20:48:25;6.90;99.90
30851;DHT22;17567;48.382;9.102;2023-04-16T20:53:26;6.90;99.90
30851;DHT22;17567;48.382;9.102;2023-04-16T20:58:27;6.90;99.90
30851;DHT22;17567;48.382;9.102;2023-04-16T21:03:28;6.90;99.90
30851;DHT22;17567;48.382;9.102;2023-04-16T21:08:28;6.90;99.90
30851;DHT22;17567;48.382;9.102;2023-04-16T21:13:29;6.90;99.90
30851;DHT22;17567;48.382;9.102;2023-04-16T21:18:30;6.90;99.90
30851;DHT22;17567;48.382;9.102;2023-04-16T21:23:30;6.90;99.90
30851;DHT22;17567;48.382;9.102;2023-04-16T21:28:31;6.80;99.90
30851;DHT22;17567;48.382;9.102;2023-04-16T21:33:31;6.80;99.90
30851;DHT22;17567;48.382;9.102;2023-04-16T21:38:32;6.80;99.90
30851;DHT22;17567;48.382;9.102;2023-04-16T21:43:33;6.80;99.90
30851;DHT22;17567;48.382;9.102;2023-04-16T21:48:33;6.80;99.90
30851;DHT22;17567;48.382;9.102;2023-04-16T21:53:34;6.80;99.90
30851;DHT22;17567;48.382;9.102;2023-04-16T21:58:36;6.80;99.90
30851;DHT22;17567;48.382;9.102;2023-04-16T22:03:36;6.80;99.90
30851;DHT22;17567;48.382;9.102;2023-04-16T22:08:39;6.70;99.90
30851;DHT22;17567;48.382;9.102;2023-04-16T22:13:39;6.70;99.90
30851;DHT22;17567;48.382;9.102;2023-04-16T22:18:41;6.80;99.90
30851;DHT22;17567;48.382;9.102;2023-04-16T22:23:44;6.70;99.90
30851;DHT22;17567;48.382;9.102;2023-04-16T22:28:44;6.70;99.90
30851;DHT22;17567;48.382;9.102;2023-04-16T22:33:45;6.70;99.90
30851;DHT22;17567;48.382;9.102;2023-04-16T22:38:46;6.70;99.90
30851;DHT22;17567;48.382;9.102;2023-04-16T22:43:47;6.70;99.90
30851;DHT22;17567;48.382;9.102;2023-04-16T22:48:48;6.70;99.90
30851;DHT22;17567;48.382;9.102;2023-04-16T22:53:49;6.60;99.90
30851;DHT22;17567;48.382;9.102;2023-04-16T22:58:50;6.60;99.90
30851;DHT22;17567;48.382;9.102;2023-04-16T23:03:52;6.70;99.90
30851;DHT22;17567;48.382;9.102;2023-04-16T23:08:52;6.70;99.90
30851;DHT22;17567;48.382;9.102;2023-04-16T23:13:53;6.70;99.90
30851;DHT22;17567;48.382;9.102;2023-04-16T23:18:54;6.70;99.90
30851;DHT22;17567;48.382;9.102;2023-04-16T23:23:54;6.70;99.90
30851;DHT22;17567;48.382;9.102;2023-04-16T23:28:56;6.70;99.90
30851;DHT22;17567;48.382;9.102;2023-04-16T23:33:56;6.70;99.90
30851;DHT22;17567;48.382;9.102;2023-04-16T23:38:57;6.60;99.90
30851;DHT22;17567;48.382;9.102;2023-04-16T23:43:58;6.60;99.90
30851;DHT22;17567;48.382;9.102;2023-04-16T23:48:58;6.60;99.90
30851;DHT22;17567;48.382;9.102;2023-04-16T23:53:59;6.60;99.90
30851;DHT22;17567;48.382;9.102;2023-04-16T23:58:59;6.60;99.90
